createdAt,value
2022-12-18T00:00:58.836Z,79.27
2022-12-18T00:04:06.084Z,79.30
2022-12-18T00:07:09.183Z,79.17
2022-12-18T00:10:11.937Z,79.11
2022-12-18T00:13:18.364Z,79.29
2022-12-18T00:16:23.512Z,79.23
2022-12-18T00:19:26.324Z,79.13
2022-12-18T00:22:29.080Z,79.06
2022-12-18T00:25:35.159Z,79.26
2022-12-18T00:28:38.177Z,79.21
2022-12-18T00:31:42.594Z,79.09
2022-12-18T00:34:45.428Z,79.06
2022-12-18T00:37:48.194Z,79.32
2022-12-18T00:40:51.067Z,79.16
2022-12-18T00:43:53.798Z,79.09
2022-12-18T00:46:56.688Z,79.08
2022-12-18T00:49:59.450Z,79.13
2022-12-18T00:53:02.204Z,79.30
2022-12-18T00:56:05.916Z,79.06
2022-12-18T00:59:08.828Z,79.23
2022-12-18T01:02:11.697Z,79.09
2022-12-18T01:05:15.114Z,79.03
2022-12-18T01:08:17.898Z,79.04
2022-12-18T01:11:22.212Z,79.23
2022-12-18T01:14:25.108Z,79.09
2022-12-18T01:17:27.860Z,79.12
2022-12-18T01:20:30.628Z,79.18
2022-12-18T01:23:33.377Z,79.17
2022-12-18T01:26:36.118Z,78.98
2022-12-18T01:29:38.895Z,79.06
2022-12-18T01:32:41.640Z,79.13
2022-12-18T01:35:44.757Z,79.16
2022-12-18T01:38:50.146Z,79.36
2022-12-18T01:42:04.991Z,79.19
2022-12-18T01:45:25.151Z,79.08
2022-12-18T01:48:27.921Z,78.95
2022-12-18T01:51:31.712Z,79.19
2022-12-18T01:54:34.511Z,79.05
2022-12-18T01:57:38.008Z,79.00
2022-12-18T02:00:41.390Z,78.93
2022-12-18T02:03:45.517Z,79.09
2022-12-18T02:06:52.628Z,78.99
2022-12-18T02:10:00.968Z,78.96
2022-12-18T02:13:13.307Z,78.87
2022-12-18T02:16:25.239Z,79.02
2022-12-18T02:19:53.080Z,78.95
2022-12-18T02:23:11.833Z,79.06
2022-12-18T02:26:21.446Z,78.88
2022-12-18T02:29:28.327Z,78.99
2022-12-18T02:32:34.662Z,78.84
2022-12-18T02:35:39.745Z,78.95
2022-12-18T02:38:44.707Z,79.13
2022-12-18T02:41:48.496Z,78.99
2022-12-18T02:44:52.420Z,78.89
2022-12-18T02:47:55.414Z,78.99
2022-12-18T02:51:08.126Z,79.01
2022-12-18T02:54:21.994Z,79.00
2022-12-18T02:57:35.505Z,78.96
2022-12-18T03:00:42.625Z,79.03
2022-12-18T03:03:50.825Z,79.06
2022-12-18T03:06:57.876Z,79.07
2022-12-18T03:10:02.620Z,79.07
2022-12-18T03:13:09.498Z,79.01
2022-12-18T03:16:16.451Z,78.96
2022-12-18T03:19:23.067Z,79.09
2022-12-18T03:22:30.973Z,79.04
2022-12-18T03:25:35.812Z,78.87
2022-12-18T03:28:45.243Z,78.72
2022-12-18T03:31:54.237Z,78.84
2022-12-18T03:35:03.124Z,78.87
2022-12-18T03:38:06.390Z,78.82
2022-12-18T03:41:17.480Z,78.79
2022-12-18T03:44:27.715Z,78.84
2022-12-18T03:47:35.122Z,78.89
2022-12-18T03:50:45.581Z,78.90
2022-12-18T03:53:54.324Z,78.87
2022-12-18T03:57:02.114Z,78.92
2022-12-18T04:00:09.371Z,78.83
2022-12-18T04:03:14.172Z,78.87
2022-12-18T04:06:18.241Z,78.70
2022-12-18T04:09:21.952Z,78.73
2022-12-18T04:12:27.411Z,78.80
2022-12-18T04:15:30.232Z,78.72
2022-12-18T04:18:33.181Z,78.78
2022-12-18T04:21:35.979Z,78.63
2022-12-18T04:24:38.748Z,78.64
2022-12-18T04:27:41.632Z,78.74
2022-12-18T04:30:44.427Z,78.83
2022-12-18T04:33:47.240Z,78.53
2022-12-18T04:36:50.086Z,78.62
2022-12-18T04:39:52.840Z,78.52
2022-12-18T04:42:55.687Z,78.65
2022-12-18T04:46:04.594Z,78.71
2022-12-18T04:49:07.824Z,78.63
2022-12-18T04:52:10.593Z,78.69
2022-12-18T04:55:13.341Z,78.65
2022-12-18T04:58:16.467Z,78.68
2022-12-18T05:01:20.017Z,78.58
2022-12-18T05:04:22.936Z,78.51
2022-12-18T05:07:26.020Z,78.60
2022-12-18T05:10:32.237Z,78.49
2022-12-18T05:13:39.874Z,78.50
2022-12-18T05:16:42.980Z,78.60
2022-12-18T05:19:46.710Z,78.61
2022-12-18T05:22:49.659Z,78.45
2022-12-18T05:25:54.068Z,78.39
2022-12-18T05:28:56.816Z,78.65
2022-12-18T05:31:59.568Z,78.64
2022-12-18T05:35:02.754Z,78.55
2022-12-18T05:38:05.540Z,78.56
2022-12-18T05:41:09.548Z,78.63
2022-12-18T05:44:12.321Z,78.64
2022-12-18T05:47:15.103Z,78.45
2022-12-18T05:50:18.419Z,78.50
2022-12-18T05:53:22.137Z,78.52
2022-12-18T05:56:24.892Z,78.50
2022-12-18T05:59:28.072Z,78.54
2022-12-18T06:02:30.958Z,78.50
2022-12-18T06:05:37.531Z,78.50
2022-12-18T06:08:45.867Z,78.40
2022-12-18T06:11:49.172Z,78.42
2022-12-18T06:14:51.932Z,78.42
2022-12-18T06:17:54.746Z,78.47
2022-12-18T06:20:58.237Z,78.51
2022-12-18T06:24:01.754Z,78.45
2022-12-18T06:27:04.876Z,78.25
2022-12-18T06:30:11.187Z,78.25
2022-12-18T06:33:13.249Z,78.22
2022-12-18T06:36:17.024Z,78.25
2022-12-18T06:39:19.762Z,78.34
2022-12-18T06:42:22.643Z,78.50
2022-12-18T06:45:25.556Z,78.35
2022-12-18T06:48:28.424Z,78.47
2022-12-18T06:51:31.183Z,78.41
2022-12-18T06:54:33.935Z,78.44
2022-12-18T06:57:36.975Z,78.36
2022-12-18T07:00:39.818Z,78.35
2022-12-18T07:03:43.994Z,78.32
2022-12-18T07:06:47.457Z,78.48
2022-12-18T07:09:51.766Z,78.38
2022-12-18T07:12:54.503Z,78.61
2022-12-18T07:16:03.435Z,78.46
2022-12-18T07:19:06.213Z,78.50
2022-12-18T07:22:08.968Z,78.41
2022-12-18T07:25:11.700Z,78.45
2022-12-18T07:28:17.528Z,78.47
2022-12-18T07:31:22.440Z,78.54
2022-12-18T07:34:25.581Z,78.44
2022-12-18T07:37:28.645Z,78.15
2022-12-18T07:40:31.356Z,78.22
2022-12-18T07:43:34.922Z,78.25
2022-12-18T07:46:37.752Z,78.26
2022-12-18T07:49:40.544Z,78.42
2022-12-18T07:52:43.300Z,78.48
2022-12-18T07:56:11.159Z,78.53
2022-12-18T07:59:09.229Z,78.23
2022-12-18T08:02:12.281Z,78.14
2022-12-18T08:05:15.569Z,78.26
2022-12-18T08:08:18.402Z,78.38
2022-12-18T08:11:21.497Z,78.35
2022-12-18T08:14:24.483Z,78.20
2022-12-18T08:17:27.251Z,78.24
2022-12-18T08:20:30.028Z,78.29
2022-12-18T08:23:32.835Z,78.33
2022-12-18T08:26:35.572Z,78.14
2022-12-18T08:29:38.552Z,78.06
2022-12-18T08:32:41.352Z,78.12
2022-12-18T08:35:46.009Z,78.07
2022-12-18T08:38:49.163Z,78.03
2022-12-18T08:42:10.095Z,78.19
2022-12-18T08:45:13.423Z,78.17
2022-12-18T08:48:21.895Z,78.06
2022-12-18T08:51:25.378Z,78.07
2022-12-18T08:54:28.266Z,78.03
2022-12-18T08:57:31.036Z,78.10
2022-12-18T09:00:33.771Z,77.92
2022-12-18T09:03:37.785Z,77.72
2022-12-18T09:06:40.913Z,77.75
2022-12-18T09:09:44.088Z,77.88
2022-12-18T09:12:46.886Z,77.72
2022-12-18T09:15:53.537Z,77.76
2022-12-18T09:18:59.872Z,77.56
2022-12-18T09:22:03.000Z,77.47
2022-12-18T09:25:08.623Z,77.54
2022-12-18T09:28:13.511Z,77.45
2022-12-18T09:31:17.650Z,77.42
2022-12-18T09:34:22.212Z,77.34
2022-12-18T09:37:25.280Z,77.36
2022-12-18T09:40:33.925Z,77.19
2022-12-18T09:43:41.864Z,77.11
2022-12-18T09:46:49.745Z,77.01
2022-12-18T09:49:57.591Z,77.06
2022-12-18T09:53:06.801Z,76.87
2022-12-18T09:56:16.960Z,76.92
2022-12-18T09:59:24.772Z,76.76
2022-12-18T10:02:31.257Z,76.24
2022-12-18T10:05:43.953Z,76.24
2022-12-18T10:08:54.614Z,75.93
2022-12-18T10:12:07.050Z,76.02
2022-12-18T10:15:18.417Z,75.72
2022-12-18T10:18:33.788Z,75.81
2022-12-18T10:21:46.595Z,75.87
2022-12-18T10:25:00.557Z,75.82
2022-12-18T10:28:11.345Z,75.89
2022-12-18T10:31:18.299Z,75.89
2022-12-18T10:34:21.305Z,75.67
2022-12-18T10:37:26.075Z,75.56
2022-12-18T10:40:28.874Z,75.58
2022-12-18T10:43:33.456Z,75.66
2022-12-18T10:46:36.424Z,75.68
2022-12-18T10:49:48.437Z,75.68
2022-12-18T10:52:58.572Z,75.66
2022-12-18T10:56:03.120Z,75.39
2022-12-18T10:59:07.936Z,75.45
2022-12-18T11:02:28.787Z,75.60
2022-12-18T11:05:33.257Z,75.63
2022-12-18T11:08:36.347Z,75.72
2022-12-18T11:11:39.161Z,75.56
2022-12-18T11:14:47.867Z,75.66
2022-12-18T11:17:52.737Z,75.75
2022-12-18T11:20:59.305Z,75.35
2022-12-18T11:24:02.588Z,75.51
2022-12-18T11:27:16.437Z,75.70
2022-12-18T11:30:25.532Z,75.44
2022-12-18T11:33:28.550Z,75.53
2022-12-18T11:36:36.392Z,75.53
2022-12-18T11:39:45.492Z,75.54
2022-12-18T11:42:55.645Z,75.50
2022-12-18T11:46:03.369Z,75.38
2022-12-18T11:49:13.187Z,75.24
2022-12-18T11:52:20.484Z,74.99
2022-12-18T11:55:34.425Z,74.74
2022-12-18T11:58:46.953Z,74.86
2022-12-18T12:01:53.830Z,74.83
2022-12-18T12:05:19.628Z,74.89
2022-12-18T12:08:32.954Z,74.65
2022-12-18T12:11:51.745Z,74.35
2022-12-18T12:15:04.252Z,74.28
2022-12-18T12:18:17.077Z,74.27
2022-12-18T12:21:26.820Z,74.27
2022-12-18T12:24:48.892Z,74.44
2022-12-18T12:28:01.357Z,74.35
2022-12-18T12:31:14.156Z,74.17
2022-12-18T12:34:22.611Z,74.11
2022-12-18T12:37:39.316Z,73.98
2022-12-18T12:40:53.960Z,73.98
2022-12-18T12:44:07.711Z,73.85
2022-12-18T12:47:15.424Z,74.06
2022-12-18T12:50:22.499Z,73.92
2022-12-18T12:53:31.738Z,73.83
2022-12-18T12:56:40.838Z,73.93
2022-12-18T12:59:53.601Z,73.96
2022-12-18T13:03:05.596Z,73.94
2022-12-18T13:06:18.493Z,73.78
2022-12-18T13:09:21.588Z,73.72
2022-12-18T13:12:45.575Z,73.86
2022-12-18T13:16:04.051Z,73.83
2022-12-18T13:19:25.683Z,73.78
2022-12-18T13:22:34.896Z,73.93
2022-12-18T13:25:38.796Z,73.68
2022-12-18T13:28:57.181Z,73.63
2022-12-18T13:32:03.341Z,73.58
2022-12-18T13:35:40.265Z,73.68
2022-12-18T13:38:44.248Z,73.78
2022-12-18T13:41:49.360Z,73.69
2022-12-18T13:44:52.431Z,73.56
2022-12-18T13:47:55.781Z,73.44
2022-12-18T13:51:04.923Z,73.51
2022-12-18T13:54:19.412Z,73.33
2022-12-18T13:57:30.189Z,73.38
2022-12-18T14:00:33.000Z,73.40
2022-12-18T14:03:35.992Z,73.51
2022-12-18T14:06:39.385Z,73.57
2022-12-18T14:09:46.497Z,73.39
2022-12-18T14:12:57.944Z,73.44
2022-12-18T14:16:07.527Z,73.47
2022-12-18T14:19:15.864Z,73.49
2022-12-18T14:22:21.732Z,73.55
2022-12-18T14:25:26.377Z,73.72
2022-12-18T14:28:29.314Z,73.69
2022-12-18T14:31:32.762Z,73.43
2022-12-18T14:34:35.535Z,73.43
2022-12-18T14:37:38.299Z,73.38
2022-12-18T14:40:41.073Z,73.41
2022-12-18T14:43:47.000Z,73.10
2022-12-18T14:46:51.611Z,73.20
2022-12-18T14:49:54.418Z,73.26
2022-12-18T14:52:57.196Z,73.16
2022-12-18T14:56:00.796Z,73.13
2022-12-18T14:59:06.444Z,72.78
2022-12-18T15:02:19.732Z,73.05
2022-12-18T15:05:28.717Z,73.27
2022-12-18T15:08:36.768Z,73.13
2022-12-18T15:11:47.024Z,72.69
2022-12-18T15:14:49.886Z,72.94
2022-12-18T15:17:59.086Z,72.94
2022-12-18T15:21:10.423Z,72.81
2022-12-18T15:24:21.064Z,72.63
2022-12-18T15:27:30.882Z,72.78
2022-12-18T15:30:33.777Z,72.92
2022-12-18T15:33:39.207Z,72.74
2022-12-18T15:36:42.314Z,72.25
2022-12-18T15:39:45.043Z,72.60
2022-12-18T15:43:07.460Z,72.49
2022-12-18T15:46:14.119Z,72.44
2022-12-18T15:49:16.885Z,72.31
2022-12-18T15:52:26.208Z,72.53
2022-12-18T15:55:47.703Z,72.59
2022-12-18T15:58:50.883Z,72.62
2022-12-18T16:01:54.577Z,72.59
2022-12-18T16:04:58.512Z,72.55
2022-12-18T16:08:02.053Z,72.35
2022-12-18T16:11:06.469Z,72.39
2022-12-18T16:14:18.914Z,72.21
2022-12-18T16:17:21.926Z,72.11
2022-12-18T16:20:24.692Z,72.30
2022-12-18T16:23:27.806Z,72.35
2022-12-18T16:26:38.063Z,72.39
2022-12-18T16:29:40.933Z,72.15
2022-12-18T16:32:44.260Z,72.06
2022-12-18T16:35:53.924Z,72.01
2022-12-18T16:38:56.893Z,71.92
2022-12-18T16:42:01.976Z,71.53
2022-12-18T16:45:11.878Z,71.69
2022-12-18T16:48:14.961Z,71.94
2022-12-18T16:51:18.056Z,71.91
2022-12-18T16:54:21.650Z,71.88
2022-12-18T16:57:25.227Z,71.67
2022-12-18T17:00:28.346Z,71.61
2022-12-18T17:03:31.112Z,71.64
2022-12-18T17:06:36.118Z,71.73
2022-12-18T17:09:39.655Z,71.71
2022-12-18T17:12:43.176Z,71.52
2022-12-18T17:15:46.695Z,71.59
2022-12-18T17:18:50.259Z,71.63
2022-12-18T17:21:53.964Z,71.56
2022-12-18T17:24:56.710Z,71.49
2022-12-18T17:27:59.558Z,71.52
2022-12-18T17:31:02.505Z,71.51
2022-12-18T17:34:05.608Z,71.44
2022-12-18T17:37:08.636Z,71.03
2022-12-18T17:40:12.748Z,70.79
2022-12-18T17:43:15.836Z,70.97
2022-12-18T17:46:19.901Z,71.24
2022-12-18T17:49:22.814Z,71.34
2022-12-18T17:52:25.726Z,71.15
2022-12-18T17:55:28.958Z,70.94
2022-12-18T17:58:32.622Z,70.66
2022-12-18T18:01:40.946Z,70.44
2022-12-18T18:04:45.368Z,70.70
2022-12-18T18:07:49.882Z,70.48
2022-12-18T18:11:15.637Z,70.24
2022-12-18T18:14:20.225Z,70.28
2022-12-18T18:17:23.124Z,70.25
2022-12-18T18:20:27.958Z,70.51
2022-12-18T18:23:32.455Z,70.81
2022-12-18T18:26:36.185Z,70.71
2022-12-18T18:29:39.515Z,70.33
2022-12-18T18:32:42.256Z,70.15
2022-12-18T18:35:53.850Z,69.87
2022-12-18T18:39:00.004Z,70.12
2022-12-18T18:42:03.241Z,70.35
2022-12-18T18:45:08.327Z,70.22
2022-12-18T18:48:11.372Z,70.40
2022-12-18T18:51:21.116Z,70.38
2022-12-18T18:54:24.554Z,70.44
2022-12-18T18:57:30.281Z,70.35
2022-12-18T19:00:33.623Z,70.32
2022-12-18T19:03:37.520Z,70.25
2022-12-18T19:06:40.990Z,70.17
2022-12-18T19:09:51.484Z,69.98
2022-12-18T19:13:12.337Z,70.02
2022-12-18T19:16:15.621Z,70.12
2022-12-18T19:19:20.433Z,70.02
2022-12-18T19:22:24.170Z,69.98
2022-12-18T19:25:40.569Z,69.47
2022-12-18T19:28:45.170Z,69.22
2022-12-18T19:31:48.013Z,69.18
2022-12-18T19:34:53.175Z,69.56
2022-12-18T19:37:56.500Z,69.73
2022-12-18T19:40:59.287Z,69.69
2022-12-18T19:44:07.705Z,69.68
2022-12-18T19:47:11.245Z,69.65
2022-12-18T19:50:14.604Z,69.56
2022-12-18T19:53:17.661Z,69.62
2022-12-18T19:56:24.085Z,69.64
2022-12-18T19:59:26.849Z,69.42
2022-12-18T20:02:30.603Z,69.17
2022-12-18T20:05:33.600Z,69.28
2022-12-18T20:08:36.555Z,69.04
2022-12-18T20:11:42.037Z,69.17
2022-12-18T20:14:45.233Z,69.25
2022-12-18T20:17:49.904Z,69.38
2022-12-18T20:20:52.915Z,69.37
2022-12-18T20:23:59.669Z,69.31
2022-12-18T20:27:04.723Z,69.17
2022-12-18T20:30:10.572Z,69.08
2022-12-18T20:33:13.712Z,68.97
2022-12-18T20:36:22.469Z,68.78
2022-12-18T20:39:26.975Z,68.62
2022-12-18T20:42:30.018Z,68.74
2022-12-18T20:45:33.039Z,69.03
2022-12-18T20:48:36.505Z,68.96
2022-12-18T20:51:39.235Z,68.89
2022-12-18T20:54:42.311Z,68.96
2022-12-18T20:57:45.341Z,68.83
2022-12-18T21:00:48.170Z,68.37
2022-12-18T21:03:52.145Z,68.47
2022-12-18T21:06:57.939Z,68.79
2022-12-18T21:10:06.537Z,68.28
2022-12-18T21:13:09.515Z,68.28
2022-12-18T21:16:14.337Z,68.19
2022-12-18T21:19:19.999Z,68.23
2022-12-18T21:22:23.347Z,68.17
2022-12-18T21:25:28.821Z,68.13
2022-12-18T21:28:31.580Z,68.08
2022-12-18T21:31:38.607Z,68.14
2022-12-18T21:34:47.511Z,67.93
2022-12-18T21:37:50.995Z,68.10
2022-12-18T21:40:53.764Z,68.53
2022-12-18T21:44:05.352Z,68.31
2022-12-18T21:47:21.805Z,68.20
2022-12-18T21:50:25.993Z,68.42
2022-12-18T21:53:29.259Z,68.24
2022-12-18T21:56:45.341Z,68.15
2022-12-18T21:59:48.908Z,67.79
2022-12-18T22:03:17.790Z,67.74
2022-12-18T22:06:14.405Z,67.96
2022-12-18T22:09:19.568Z,68.00
2022-12-18T22:12:34.691Z,67.81
2022-12-18T22:15:37.520Z,67.73
2022-12-18T22:18:40.360Z,67.54
2022-12-18T22:21:45.775Z,67.61
2022-12-18T22:24:49.411Z,67.88
2022-12-18T22:28:06.732Z,67.68
2022-12-18T22:31:09.907Z,67.90
2022-12-18T22:34:13.555Z,68.04
2022-12-18T22:37:16.445Z,67.85
2022-12-18T22:40:25.326Z,67.78
2022-12-18T22:43:28.477Z,67.69
2022-12-18T22:46:33.417Z,67.56
2022-12-18T22:49:37.001Z,67.55
2022-12-18T22:52:40.456Z,67.56
2022-12-18T22:55:43.188Z,67.70
2022-12-18T22:58:48.841Z,67.71
2022-12-18T23:01:57.105Z,67.60
2022-12-18T23:05:02.191Z,67.54
2022-12-18T23:08:05.735Z,67.55
2022-12-18T23:11:08.986Z,67.57
2022-12-18T23:14:12.188Z,67.20
2022-12-18T23:17:14.968Z,67.16
2022-12-18T23:20:17.851Z,67.35
2022-12-18T23:23:20.609Z,67.46
2022-12-18T23:26:25.443Z,67.38
2022-12-18T23:29:28.214Z,67.33
2022-12-18T23:32:30.964Z,66.89
2022-12-18T23:35:35.769Z,67.06
2022-12-18T23:38:39.515Z,67.21
2022-12-18T23:41:42.268Z,66.97
2022-12-18T23:44:45.043Z,66.81
2022-12-18T23:47:50.844Z,66.75
2022-12-18T23:50:54.133Z,66.69
2022-12-18T23:53:58.728Z,66.61
2022-12-18T23:57:01.753Z,67.02
